Crane, Indiana
Current Conditions -  °F | °C
As of 8:35 PM on Sunday 21 Dec 2014 (Local Time) from KDCY Reporting Station
Clear Clear  
Wind Chill: 25°   Ceiling: Unl
Heat Index: 32°   Visibility: 7mi
Dew Point: 27°   Wind: 7mph
Humidity: 82%   Direction: 110°ESE
Pressure: 30.09"   Gusts: NA
Location:  38.89°N, 86.9°W
Report Text: KDCY 220235Z AUTO 11006KT 7SM CLR 00/M03 A3009 RMK AO2 T10021030
Loading
Personal Weather Stations






























Interactive Weather Map New forecast layout! Learn more

10-Day Weather Forecast

Advertisements
Track Severe Weather on mobile